sensor_id;sensor_type;location;lat;lon;timestamp;P1;durP1;ratioP1;P2;durP2;ratioP2
18507;SDS011;9383;50.928;12.116;2022-09-24T00:01:33;5.72;;;5.05;;
18507;SDS011;9383;50.928;12.116;2022-09-24T00:04:03;6.85;;;4.93;;
18507;SDS011;9383;50.928;12.116;2022-09-24T00:06:33;4.85;;;4.38;;
18507;SDS011;9383;50.928;12.116;2022-09-24T00:09:02;4.95;;;4.55;;
18507;SDS011;9383;50.928;12.116;2022-09-24T00:11:29;7.65;;;4.75;;
18507;SDS011;9383;50.928;12.116;2022-09-24T00:13:58;6.18;;;5.07;;
18507;SDS011;9383;50.928;12.116;2022-09-24T00:16:30;5.25;;;4.75;;
18507;SDS011;9383;50.928;12.116;2022-09-24T00:19:00;5.25;;;4.75;;
18507;SDS011;9383;50.928;12.116;2022-09-24T00:21:31;5.32;;;4.60;;
18507;SDS011;9383;50.928;12.116;2022-09-24T00:24:09;5.03;;;4.40;;
18507;SDS011;9383;50.928;12.116;2022-09-24T00:27:02;4.88;;;4.47;;
18507;SDS011;9383;50.928;12.116;2022-09-24T00:29:30;5.72;;;4.85;;
18507;SDS011;9383;50.928;12.116;2022-09-24T00:31:58;5.93;;;5.28;;
18507;SDS011;9383;50.928;12.116;2022-09-24T00:34:25;4.95;;;4.55;;
18507;SDS011;9383;50.928;12.116;2022-09-24T00:36:52;5.68;;;4.68;;
18507;SDS011;9383;50.928;12.116;2022-09-24T00:39:18;5.18;;;4.68;;
18507;SDS011;9383;50.928;12.116;2022-09-24T00:41:45;4.97;;;4.53;;
18507;SDS011;9383;50.928;12.116;2022-09-24T00:47:31;5.10;;;4.60;;
18507;SDS011;9383;50.928;12.116;2022-09-24T00:55:28;5.22;;;4.72;;
18507;SDS011;9383;50.928;12.116;2022-09-24T00:57:56;4.82;;;4.40;;
18507;SDS011;9383;50.928;12.116;2022-09-24T01:00:29;7.65;;;4.80;;
18507;SDS011;9383;50.928;12.116;2022-09-24T01:02:57;4.63;;;4.22;;
18507;SDS011;9383;50.928;12.116;2022-09-24T01:05:31;4.35;;;4.00;;
18507;SDS011;9383;50.928;12.116;2022-09-24T01:07:58;4.53;;;4.13;;
18507;SDS011;9383;50.928;12.116;2022-09-24T01:11:13;4.25;;;3.92;;
18507;SDS011;9383;50.928;12.116;2022-09-24T01:15:53;4.70;;;4.30;;
18507;SDS011;9383;50.928;12.116;2022-09-24T01:18:58;4.93;;;4.43;;
18507;SDS011;9383;50.928;12.116;2022-09-24T01:22:02;4.30;;;3.92;;
18507;SDS011;9383;50.928;12.116;2022-09-24T01:30:38;4.25;;;3.92;;
18507;SDS011;9383;50.928;12.116;2022-09-24T01:33:07;4.55;;;4.00;;
18507;SDS011;9383;50.928;12.116;2022-09-24T01:35:48;5.05;;;4.55;;
18507;SDS011;9383;50.928;12.116;2022-09-24T01:38:20;4.60;;;4.22;;
18507;SDS011;9383;50.928;12.116;2022-09-24T01:40:53;4.10;;;3.80;;
18507;SDS011;9383;50.928;12.116;2022-09-24T01:43:24;4.78;;;4.07;;
18507;SDS011;9383;50.928;12.116;2022-09-24T01:45:54;4.22;;;3.88;;
18507;SDS011;9383;50.928;12.116;2022-09-24T01:48:24;4.80;;;4.13;;
18507;SDS011;9383;50.928;12.116;2022-09-24T01:50:59;4.85;;;4.45;;
18507;SDS011;9383;50.928;12.116;2022-09-24T01:53:32;4.70;;;4.30;;
18507;SDS011;9383;50.928;12.116;2022-09-24T02:01:48;4.72;;;4.18;;
18507;SDS011;9383;50.928;12.116;2022-09-24T02:04:22;4.55;;;4.15;;
18507;SDS011;9383;50.928;12.116;2022-09-24T02:06:54;4.55;;;4.15;;
18507;SDS011;9383;50.928;12.116;2022-09-24T02:09:34;5.60;;;4.38;;
18507;SDS011;9383;50.928;12.116;2022-09-24T02:12:12;5.38;;;4.32;;
18507;SDS011;9383;50.928;12.116;2022-09-24T02:14:48;3.90;;;3.60;;
18507;SDS011;9383;50.928;12.116;2022-09-24T02:17:37;4.88;;;3.95;;
18507;SDS011;9383;50.928;12.116;2022-09-24T02:20:08;4.55;;;3.90;;
18507;SDS011;9383;50.928;12.116;2022-09-24T02:22:41;4.45;;;4.00;;
18507;SDS011;9383;50.928;12.116;2022-09-24T02:25:11;4.68;;;4.28;;
18507;SDS011;9383;50.928;12.116;2022-09-24T02:27:43;4.57;;;3.65;;
18507;SDS011;9383;50.928;12.116;2022-09-24T02:30:09;4.60;;;4.20;;
18507;SDS011;9383;50.928;12.116;2022-09-24T02:32:38;7.40;;;3.70;;
18507;SDS011;9383;50.928;12.116;2022-09-24T02:35:08;5.00;;;4.60;;
18507;SDS011;9383;50.928;12.116;2022-09-24T02:37:39;4.40;;;4.10;;
18507;SDS011;9383;50.928;12.116;2022-09-24T02:40:09;4.75;;;3.75;;
18507;SDS011;9383;50.928;12.116;2022-09-24T02:42:38;4.53;;;4.13;;
18507;SDS011;9383;50.928;12.116;2022-09-24T02:45:07;4.43;;;4.13;;
18507;SDS011;9383;50.928;12.116;2022-09-24T02:47:34;4.60;;;4.20;;
18507;SDS011;9383;50.928;12.116;2022-09-24T02:50:03;4.72;;;4.20;;
18507;SDS011;9383;50.928;12.116;2022-09-24T02:52:30;4.18;;;3.88;;
18507;SDS011;9383;50.928;12.116;2022-09-24T02:54:56;4.13;;;3.83;;
18507;SDS011;9383;50.928;12.116;2022-09-24T02:57:23;4.68;;;4.28;;
18507;SDS011;9383;50.928;12.116;2022-09-24T02:59:49;5.63;;;4.35;;
18507;SDS011;9383;50.928;12.116;2022-09-24T03:02:17;4.55;;;4.22;;
18507;SDS011;9383;50.928;12.116;2022-09-24T03:04:44;5.75;;;5.13;;
18507;SDS011;9383;50.928;12.116;2022-09-24T03:07:11;4.55;;;4.20;;
18507;SDS011;9383;50.928;12.116;2022-09-24T03:09:40;4.40;;;4.00;;
18507;SDS011;9383;50.928;12.116;2022-09-24T03:12:07;4.43;;;4.03;;
18507;SDS011;9383;50.928;12.116;2022-09-24T03:14:34;4.65;;;4.25;;
18507;SDS011;9383;50.928;12.116;2022-09-24T03:17:00;4.60;;;4.20;;
18507;SDS011;9383;50.928;12.116;2022-09-24T03:19:27;4.93;;;4.43;;
18507;SDS011;9383;50.928;12.116;2022-09-24T03:21:57;4.28;;;3.97;;
18507;SDS011;9383;50.928;12.116;2022-09-24T03:24:23;5.53;;;4.72;;
18507;SDS011;9383;50.928;12.116;2022-09-24T03:26:50;5.03;;;4.63;;
18507;SDS011;9383;50.928;12.116;2022-09-24T03:29:17;8.55;;;4.38;;
18507;SDS011;9383;50.928;12.116;2022-09-24T03:32:03;4.35;;;3.95;;
18507;SDS011;9383;50.928;12.116;2022-09-24T03:34:30;4.78;;;3.90;;
18507;SDS011;9383;50.928;12.116;2022-09-24T03:36:57;6.28;;;4.47;;
18507;SDS011;9383;50.928;12.116;2022-09-24T03:39:23;4.63;;;4.22;;
18507;SDS011;9383;50.928;12.116;2022-09-24T03:41:50;3.95;;;3.65;;
18507;SDS011;9383;50.928;12.116;2022-09-24T03:44:17;4.70;;;4.30;;
18507;SDS011;9383;50.928;12.116;2022-09-24T03:46:44;5.00;;;4.50;;
18507;SDS011;9383;50.928;12.116;2022-09-24T03:49:11;4.60;;;4.15;;
18507;SDS011;9383;50.928;12.116;2022-09-24T03:51:38;5.18;;;4.70;;
18507;SDS011;9383;50.928;12.116;2022-09-24T03:54:04;5.18;;;4.68;;
18507;SDS011;9383;50.928;12.116;2022-09-24T03:56:31;4.75;;;4.22;;
18507;SDS011;9383;50.928;12.116;2022-09-24T03:58:57;4.20;;;3.90;;
18507;SDS011;9383;50.928;12.116;2022-09-24T04:01:24;4.57;;;4.18;;
18507;SDS011;9383;50.928;12.116;2022-09-24T04:03:51;4.80;;;4.40;;
18507;SDS011;9383;50.928;12.116;2022-09-24T04:06:18;4.90;;;4.40;;
18507;SDS011;9383;50.928;12.116;2022-09-24T04:08:45;4.65;;;4.25;;
18507;SDS011;9383;50.928;12.116;2022-09-24T04:11:11;5.13;;;4.70;;
18507;SDS011;9383;50.928;12.116;2022-09-24T04:13:38;4.95;;;4.50;;
18507;SDS011;9383;50.928;12.116;2022-09-24T04:16:08;4.82;;;4.43;;
18507;SDS011;9383;50.928;12.116;2022-09-24T04:18:34;4.50;;;4.20;;
18507;SDS011;9383;50.928;12.116;2022-09-24T04:21:01;4.50;;;4.13;;
18507;SDS011;9383;50.928;12.116;2022-09-24T04:23:28;4.40;;;4.05;;
18507;SDS011;9383;50.928;12.116;2022-09-24T04:25:56;7.05;;;4.43;;
18507;SDS011;9383;50.928;12.116;2022-09-24T04:28:26;4.40;;;4.00;;
18507;SDS011;9383;50.928;12.116;2022-09-24T04:30:54;4.45;;;4.05;;
18507;SDS011;9383;50.928;12.116;2022-09-24T04:33:21;4.85;;;4.43;;
18507;SDS011;9383;50.928;12.116;2022-09-24T04:35:47;4.95;;;4.55;;
18507;SDS011;9383;50.928;12.116;2022-09-24T04:38:14;4.57;;;4.18;;
18507;SDS011;9383;50.928;12.116;2022-09-24T04:40:41;5.63;;;4.95;;
18507;SDS011;9383;50.928;12.116;2022-09-24T04:43:11;5.32;;;4.93;;
18507;SDS011;9383;50.928;12.116;2022-09-24T04:45:40;5.95;;;5.18;;
18507;SDS011;9383;50.928;12.116;2022-09-24T04:48:09;5.90;;;5.25;;
18507;SDS011;9383;50.928;12.116;2022-09-24T04:50:36;6.00;;;5.50;;
18507;SDS011;9383;50.928;12.116;2022-09-24T04:53:03;5.70;;;5.10;;
18507;SDS011;9383;50.928;12.116;2022-09-24T04:55:29;5.15;;;4.65;;
18507;SDS011;9383;50.928;12.116;2022-09-24T04:57:57;6.32;;;5.03;;
18507;SDS011;9383;50.928;12.116;2022-09-24T05:00:24;11.00;;;5.20;;
18507;SDS011;9383;50.928;12.116;2022-09-24T05:02:54;6.93;;;5.22;;
18507;SDS011;9383;50.928;12.116;2022-09-24T05:05:23;5.75;;;4.90;;
18507;SDS011;9383;50.928;12.116;2022-09-24T05:07:50;6.30;;;5.45;;
18507;SDS011;9383;50.928;12.116;2022-09-24T05:10:18;5.82;;;5.38;;
18507;SDS011;9383;50.928;12.116;2022-09-24T05:12:47;7.22;;;5.18;;
18507;SDS011;9383;50.928;12.116;2022-09-24T05:15:13;5.43;;;5.03;;
18507;SDS011;9383;50.928;12.116;2022-09-24T05:17:40;5.25;;;4.80;;
18507;SDS011;9383;50.928;12.116;2022-09-24T05:20:07;5.32;;;4.82;;
18507;SDS011;9383;50.928;12.116;2022-09-24T05:22:34;6.40;;;5.13;;
18507;SDS011;9383;50.928;12.116;2022-09-24T05:25:07;5.63;;;5.13;;
18507;SDS011;9383;50.928;12.116;2022-09-24T05:27:35;5.28;;;4.82;;
18507;SDS011;9383;50.928;12.116;2022-09-24T05:30:02;9.82;;;7.60;;
18507;SDS011;9383;50.928;12.116;2022-09-24T05:32:30;8.27;;;7.43;;
18507;SDS011;9383;50.928;12.116;2022-09-24T05:34:58;6.35;;;5.78;;
18507;SDS011;9383;50.928;12.116;2022-09-24T05:37:26;7.30;;;5.70;;
18507;SDS011;9383;50.928;12.116;2022-09-24T05:39:52;6.60;;;6.00;;
18507;SDS011;9383;50.928;12.116;2022-09-24T05:42:21;7.38;;;5.95;;
18507;SDS011;9383;50.928;12.116;2022-09-24T05:44:48;7.03;;;5.07;;
18507;SDS011;9383;50.928;12.116;2022-09-24T05:47:15;5.30;;;4.90;;
18507;SDS011;9383;50.928;12.116;2022-09-24T05:49:49;5.35;;;4.85;;
18507;SDS011;9383;50.928;12.116;2022-09-24T05:52:19;5.93;;;5.43;;
18507;SDS011;9383;50.928;12.116;2022-09-24T05:54:46;5.10;;;4.70;;
18507;SDS011;9383;50.928;12.116;2022-09-24T05:57:12;5.18;;;4.78;;
18507;SDS011;9383;50.928;12.116;2022-09-24T05:59:40;5.50;;;5.07;;
18507;SDS011;9383;50.928;12.116;2022-09-24T06:02:07;6.00;;;5.45;;
18507;SDS011;9383;50.928;12.116;2022-09-24T06:04:35;6.88;;;5.70;;
18507;SDS011;9383;50.928;12.116;2022-09-24T06:07:01;5.57;;;5.13;;
18507;SDS011;9383;50.928;12.116;2022-09-24T06:09:28;5.85;;;5.35;;
18507;SDS011;9383;50.928;12.116;2022-09-24T06:11:55;5.63;;;5.07;;
18507;SDS011;9383;50.928;12.116;2022-09-24T06:14:21;6.45;;;5.82;;
18507;SDS011;9383;50.928;12.116;2022-09-24T06:16:48;5.25;;;4.78;;
18507;SDS011;9383;50.928;12.116;2022-09-24T06:19:14;6.22;;;5.68;;
18507;SDS011;9383;50.928;12.116;2022-09-24T06:21:42;5.78;;;5.03;;
18507;SDS011;9383;50.928;12.116;2022-09-24T06:24:10;5.20;;;4.80;;
18507;SDS011;9383;50.928;12.116;2022-09-24T06:26:40;7.03;;;5.68;;
18507;SDS011;9383;50.928;12.116;2022-09-24T06:29:14;6.25;;;5.18;;
18507;SDS011;9383;50.928;12.116;2022-09-24T06:31:42;7.03;;;5.57;;
18507;SDS011;9383;50.928;12.116;2022-09-24T06:34:10;5.32;;;4.93;;
18507;SDS011;9383;50.928;12.116;2022-09-24T06:36:37;6.03;;;5.40;;
18507;SDS011;9383;50.928;12.116;2022-09-24T06:39:04;5.80;;;5.20;;
18507;SDS011;9383;50.928;12.116;2022-09-24T06:41:33;5.43;;;5.03;;
18507;SDS011;9383;50.928;12.116;2022-09-24T06:43:59;5.90;;;5.40;;
18507;SDS011;9383;50.928;12.116;2022-09-24T06:46:26;6.97;;;5.30;;
18507;SDS011;9383;50.928;12.116;2022-09-24T06:48:53;5.65;;;5.15;;
18507;SDS011;9383;50.928;12.116;2022-09-24T06:51:20;6.28;;;5.68;;
18507;SDS011;9383;50.928;12.116;2022-09-24T06:53:49;5.75;;;5.30;;
18507;SDS011;9383;50.928;12.116;2022-09-24T06:56:17;6.05;;;5.55;;
18507;SDS011;9383;50.928;12.116;2022-09-24T06:58:44;5.65;;;5.10;;
18507;SDS011;9383;50.928;12.116;2022-09-24T07:01:11;6.03;;;5.53;;
18507;SDS011;9383;50.928;12.116;2022-09-24T07:03:37;6.30;;;5.40;;
18507;SDS011;9383;50.928;12.116;2022-09-24T07:06:04;5.65;;;5.00;;
18507;SDS011;9383;50.928;12.116;2022-09-24T07:08:37;7.75;;;5.20;;
18507;SDS011;9383;50.928;12.116;2022-09-24T07:11:04;6.30;;;5.32;;
18507;SDS011;9383;50.928;12.116;2022-09-24T07:13:33;5.75;;;5.00;;
18507;SDS011;9383;50.928;12.116;2022-09-24T07:16:00;5.38;;;4.88;;
18507;SDS011;9383;50.928;12.116;2022-09-24T07:18:28;5.10;;;4.70;;
18507;SDS011;9383;50.928;12.116;2022-09-24T07:20:55;6.15;;;5.55;;
18507;SDS011;9383;50.928;12.116;2022-09-24T07:23:22;5.72;;;5.18;;
18507;SDS011;9383;50.928;12.116;2022-09-24T07:25:48;5.60;;;5.10;;
18507;SDS011;9383;50.928;12.116;2022-09-24T07:28:19;5.10;;;4.65;;
18507;SDS011;9383;50.928;12.116;2022-09-24T07:30:45;5.57;;;5.15;;
18507;SDS011;9383;50.928;12.116;2022-09-24T07:33:19;6.47;;;4.63;;
18507;SDS011;9383;50.928;12.116;2022-09-24T07:35:46;5.97;;;4.95;;
18507;SDS011;9383;50.928;12.116;2022-09-24T07:38:13;5.43;;;4.90;;
18507;SDS011;9383;50.928;12.116;2022-09-24T07:40:41;5.72;;;4.50;;
18507;SDS011;9383;50.928;12.116;2022-09-24T07:43:12;4.68;;;4.28;;
18507;SDS011;9383;50.928;12.116;2022-09-24T07:45:39;4.70;;;4.30;;
18507;SDS011;9383;50.928;12.116;2022-09-24T07:48:06;5.88;;;5.18;;
18507;SDS011;9383;50.928;12.116;2022-09-24T07:50:39;5.82;;;4.57;;
18507;SDS011;9383;50.928;12.116;2022-09-24T07:53:09;5.07;;;4.57;;
18507;SDS011;9383;50.928;12.116;2022-09-24T07:55:43;6.25;;;4.68;;
18507;SDS011;9383;50.928;12.116;2022-09-24T07:58:10;4.45;;;4.10;;
18507;SDS011;9383;50.928;12.116;2022-09-24T08:00:40;5.15;;;4.57;;
18507;SDS011;9383;50.928;12.116;2022-09-24T08:03:07;4.15;;;3.85;;
18507;SDS011;9383;50.928;12.116;2022-09-24T08:05:33;4.65;;;4.20;;
18507;SDS011;9383;50.928;12.116;2022-09-24T08:08:00;5.30;;;4.13;;
18507;SDS011;9383;50.928;12.116;2022-09-24T08:10:27;4.93;;;4.32;;
18507;SDS011;9383;50.928;12.116;2022-09-24T08:12:53;4.68;;;4.38;;
18507;SDS011;9383;50.928;12.116;2022-09-24T08:15:23;4.60;;;4.10;;
18507;SDS011;9383;50.928;12.116;2022-09-24T08:17:50;4.65;;;4.20;;
18507;SDS011;9383;50.928;12.116;2022-09-24T08:20:17;4.50;;;4.10;;
18507;SDS011;9383;50.928;12.116;2022-09-24T08:22:45;4.55;;;4.15;;
18507;SDS011;9383;50.928;12.116;2022-09-24T08:25:11;5.20;;;3.80;;
18507;SDS011;9383;50.928;12.116;2022-09-24T08:27:38;4.60;;;3.85;;
18507;SDS011;9383;50.928;12.116;2022-09-24T08:30:05;4.75;;;4.35;;
18507;SDS011;9383;50.928;12.116;2022-09-24T08:32:44;4.15;;;3.85;;
18507;SDS011;9383;50.928;12.116;2022-09-24T08:35:13;4.82;;;4.40;;
18507;SDS011;9383;50.928;12.116;2022-09-24T08:37:41;4.53;;;4.15;;
18507;SDS011;9383;50.928;12.116;2022-09-24T08:40:13;4.95;;;4.30;;
18507;SDS011;9383;50.928;12.116;2022-09-24T08:43:08;6.38;;;4.30;;
18507;SDS011;9383;50.928;12.116;2022-09-24T08:45:59;4.88;;;4.45;;
18507;SDS011;9383;50.928;12.116;2022-09-24T08:48:52;6.10;;;4.35;;
18507;SDS011;9383;50.928;12.116;2022-09-24T08:51:20;4.70;;;4.28;;
18507;SDS011;9383;50.928;12.116;2022-09-24T08:53:52;4.40;;;4.05;;
18507;SDS011;9383;50.928;12.116;2022-09-24T08:56:34;3.90;;;3.50;;
18507;SDS011;9383;50.928;12.116;2022-09-24T08:59:25;5.88;;;4.20;;
18507;SDS011;9383;50.928;12.116;2022-09-24T09:02:00;4.70;;;4.30;;
18507;SDS011;9383;50.928;12.116;2022-09-24T09:11:09;4.25;;;3.90;;
18507;SDS011;9383;50.928;12.116;2022-09-24T09:13:42;5.50;;;3.80;;
18507;SDS011;9383;50.928;12.116;2022-09-24T09:18:54;5.50;;;3.45;;
18507;SDS011;9383;50.928;12.116;2022-09-24T09:21:45;4.13;;;3.15;;
18507;SDS011;9383;50.928;12.116;2022-09-24T09:24:20;4.82;;;3.78;;
18507;SDS011;9383;50.928;12.116;2022-09-24T09:27:00;3.67;;;3.38;;
18507;SDS011;9383;50.928;12.116;2022-09-24T09:29:39;3.88;;;3.58;;
18507;SDS011;9383;50.928;12.116;2022-09-24T09:35:22;4.03;;;3.60;;
18507;SDS011;9383;50.928;12.116;2022-09-24T09:40:49;3.92;;;3.55;;
18507;SDS011;9383;50.928;12.116;2022-09-24T09:43:39;3.80;;;3.50;;
18507;SDS011;9383;50.928;12.116;2022-09-24T09:46:12;3.60;;;3.30;;
18507;SDS011;9383;50.928;12.116;2022-09-24T09:48:52;3.15;;;2.92;;
18507;SDS011;9383;50.928;12.116;2022-09-24T09:51:27;3.80;;;3.50;;
18507;SDS011;9383;50.928;12.116;2022-09-24T09:54:05;3.95;;;3.33;;
18507;SDS011;9383;50.928;12.116;2022-09-24T09:56:33;6.63;;;4.05;;
18507;SDS011;9383;50.928;12.116;2022-09-24T10:01:42;3.45;;;3.15;;
18507;SDS011;9383;50.928;12.116;2022-09-24T10:06:50;3.80;;;3.50;;
18507;SDS011;9383;50.928;12.116;2022-09-24T10:09:17;6.50;;;3.65;;
18507;SDS011;9383;50.928;12.116;2022-09-24T10:11:44;4.13;;;3.60;;
18507;SDS011;9383;50.928;12.116;2022-09-24T10:14:12;3.50;;;3.20;;
18507;SDS011;9383;50.928;12.116;2022-09-24T10:16:43;3.67;;;3.33;;
18507;SDS011;9383;50.928;12.116;2022-09-24T10:19:23;4.32;;;3.75;;
18507;SDS011;9383;50.928;12.116;2022-09-24T10:21:53;3.28;;;2.97;;
18507;SDS011;9383;50.928;12.116;2022-09-24T10:24:26;3.70;;;3.33;;
18507;SDS011;9383;50.928;12.116;2022-09-24T10:26:54;4.72;;;3.42;;
18507;SDS011;9383;50.928;12.116;2022-09-24T10:29:21;3.20;;;3.00;;
18507;SDS011;9383;50.928;12.116;2022-09-24T10:32:24;4.45;;;3.50;;
18507;SDS011;9383;50.928;12.116;2022-09-24T10:34:55;3.65;;;3.35;;
18507;SDS011;9383;50.928;12.116;2022-09-24T10:37:27;6.22;;;4.25;;
18507;SDS011;9383;50.928;12.116;2022-09-24T10:39:58;5.60;;;3.17;;
18507;SDS011;9383;50.928;12.116;2022-09-24T10:42:36;4.53;;;3.60;;
18507;SDS011;9383;50.928;12.116;2022-09-24T10:45:02;3.50;;;3.20;;
18507;SDS011;9383;50.928;12.116;2022-09-24T10:47:45;3.45;;;3.15;;
18507;SDS011;9383;50.928;12.116;2022-09-24T10:59:25;3.92;;;3.53;;
18507;SDS011;9383;50.928;12.116;2022-09-24T11:05:21;5.25;;;2.90;;
18507;SDS011;9383;50.928;12.116;2022-09-24T11:10:51;3.75;;;3.45;;
18507;SDS011;9383;50.928;12.116;2022-09-24T11:13:39;4.07;;;3.78;;
18507;SDS011;9383;50.928;12.116;2022-09-24T11:37:58;3.22;;;3.03;;
18507;SDS011;9383;50.928;12.116;2022-09-24T11:40:38;3.08;;;2.88;;
18507;SDS011;9383;50.928;12.116;2022-09-24T11:43:58;3.45;;;3.20;;
18507;SDS011;9383;50.928;12.116;2022-09-24T11:46:57;4.45;;;3.20;;
18507;SDS011;9383;50.928;12.116;2022-09-24T11:50:05;3.25;;;3.03;;
18507;SDS011;9383;50.928;12.116;2022-09-24T11:55:57;3.33;;;3.05;;
18507;SDS011;9383;50.928;12.116;2022-09-24T11:58:34;4.00;;;3.70;;
18507;SDS011;9383;50.928;12.116;2022-09-24T12:06:30;3.00;;;2.80;;
18507;SDS011;9383;50.928;12.116;2022-09-24T12:09:25;5.70;;;3.45;;
18507;SDS011;9383;50.928;12.116;2022-09-24T12:12:02;3.88;;;2.95;;
18507;SDS011;9383;50.928;12.116;2022-09-24T12:17:41;3.45;;;3.15;;
18507;SDS011;9383;50.928;12.116;2022-09-24T12:21:19;5.07;;;3.70;;
18507;SDS011;9383;50.928;12.116;2022-09-24T12:23:34;4.70;;;3.15;;
18507;SDS011;9383;50.928;12.116;2022-09-24T12:26:06;3.60;;;3.30;;
18507;SDS011;9383;50.928;12.116;2022-09-24T12:28:44;3.72;;;3.40;;
18507;SDS011;9383;50.928;12.116;2022-09-24T12:31:58;5.32;;;3.50;;
18507;SDS011;9383;50.928;12.116;2022-09-24T12:35:25;5.38;;;3.55;;
18507;SDS011;9383;50.928;12.116;2022-09-24T12:40:48;4.60;;;3.33;;
18507;SDS011;9383;50.928;12.116;2022-09-24T12:43:45;3.50;;;3.20;;
18507;SDS011;9383;50.928;12.116;2022-09-24T12:46:26;3.58;;;3.28;;
18507;SDS011;9383;50.928;12.116;2022-09-24T12:51:56;3.65;;;3.35;;
18507;SDS011;9383;50.928;12.116;2022-09-24T12:54:30;5.90;;;3.67;;
18507;SDS011;9383;50.928;12.116;2022-09-24T12:57:04;3.85;;;3.55;;
18507;SDS011;9383;50.928;12.116;2022-09-24T13:00:00;3.75;;;3.45;;
18507;SDS011;9383;50.928;12.116;2022-09-24T13:02:47;4.28;;;3.85;;
18507;SDS011;9383;50.928;12.116;2022-09-24T13:05:24;3.38;;;3.03;;
18507;SDS011;9383;50.928;12.116;2022-09-24T13:07:54;4.30;;;3.35;;
18507;SDS011;9383;50.928;12.116;2022-09-24T13:10:25;5.03;;;3.97;;
18507;SDS011;9383;50.928;12.116;2022-09-24T13:12:54;3.30;;;2.92;;
18507;SDS011;9383;50.928;12.116;2022-09-24T13:18:12;7.47;;;3.92;;
18507;SDS011;9383;50.928;12.116;2022-09-24T13:21:00;3.58;;;3.28;;
18507;SDS011;9383;50.928;12.116;2022-09-24T13:23:32;3.65;;;3.35;;
18507;SDS011;9383;50.928;12.116;2022-09-24T13:26:13;3.70;;;3.33;;
18507;SDS011;9383;50.928;12.116;2022-09-24T13:28:59;3.35;;;3.05;;
18507;SDS011;9383;50.928;12.116;2022-09-24T13:31:54;6.00;;;2.92;;
18507;SDS011;9383;50.928;12.116;2022-09-24T13:34:28;3.53;;;3.10;;
18507;SDS011;9383;50.928;12.116;2022-09-24T13:36:57;3.05;;;2.80;;
18507;SDS011;9383;50.928;12.116;2022-09-24T13:39:55;3.88;;;3.03;;
18507;SDS011;9383;50.928;12.116;2022-09-24T13:42:39;3.22;;;2.65;;
18507;SDS011;9383;50.928;12.116;2022-09-24T13:45:37;3.47;;;3.17;;
18507;SDS011;9383;50.928;12.116;2022-09-24T13:48:18;4.00;;;3.40;;
18507;SDS011;9383;50.928;12.116;2022-09-24T13:51:01;5.50;;;5.00;;
18507;SDS011;9383;50.928;12.116;2022-09-24T13:56:12;4.60;;;4.20;;
18507;SDS011;9383;50.928;12.116;2022-09-24T13:58:42;4.70;;;4.30;;
18507;SDS011;9383;50.928;12.116;2022-09-24T14:01:10;4.18;;;3.85;;
18507;SDS011;9383;50.928;12.116;2022-09-24T14:03:57;5.80;;;3.83;;
18507;SDS011;9383;50.928;12.116;2022-09-24T14:06:38;5.85;;;5.28;;
18507;SDS011;9383;50.928;12.116;2022-09-24T14:09:14;4.70;;;4.40;;
18507;SDS011;9383;50.928;12.116;2022-09-24T14:11:52;5.10;;;4.05;;
18507;SDS011;9383;50.928;12.116;2022-09-24T14:14:22;4.22;;;3.83;;
18507;SDS011;9383;50.928;12.116;2022-09-24T14:16:52;3.95;;;3.50;;
18507;SDS011;9383;50.928;12.116;2022-09-24T14:19:25;4.78;;;4.20;;
18507;SDS011;9383;50.928;12.116;2022-09-24T14:21:53;4.28;;;3.95;;
18507;SDS011;9383;50.928;12.116;2022-09-24T14:24:30;4.85;;;3.80;;
18507;SDS011;9383;50.928;12.116;2022-09-24T14:27:06;4.10;;;3.80;;
18507;SDS011;9383;50.928;12.116;2022-09-24T14:29:44;4.47;;;4.03;;
18507;SDS011;9383;50.928;12.116;2022-09-24T14:32:34;4.07;;;3.65;;
18507;SDS011;9383;50.928;12.116;2022-09-24T14:35:05;4.15;;;3.75;;
18507;SDS011;9383;50.928;12.116;2022-09-24T14:37:46;4.82;;;4.10;;
18507;SDS011;9383;50.928;12.116;2022-09-24T14:40:18;4.07;;;3.78;;
18507;SDS011;9383;50.928;12.116;2022-09-24T14:42:47;4.45;;;3.90;;
18507;SDS011;9383;50.928;12.116;2022-09-24T14:45:28;5.35;;;3.30;;
18507;SDS011;9383;50.928;12.116;2022-09-24T14:48:01;3.80;;;3.40;;
18507;SDS011;9383;50.928;12.116;2022-09-24T14:50:43;3.20;;;3.00;;
18507;SDS011;9383;50.928;12.116;2022-09-24T14:56:20;4.25;;;3.90;;
18507;SDS011;9383;50.928;12.116;2022-09-24T14:58:52;7.78;;;4.50;;
18507;SDS011;9383;50.928;12.116;2022-09-24T15:01:18;7.45;;;4.85;;
18507;SDS011;9383;50.928;12.116;2022-09-24T15:03:49;9.27;;;4.28;;
18507;SDS011;9383;50.928;12.116;2022-09-24T15:06:26;10.35;;;5.07;;
18507;SDS011;9383;50.928;12.116;2022-09-24T15:09:03;4.03;;;3.67;;
18507;SDS011;9383;50.928;12.116;2022-09-24T15:11:51;3.58;;;3.28;;
18507;SDS011;9383;50.928;12.116;2022-09-24T15:14:21;13.15;;;6.72;;
18507;SDS011;9383;50.928;12.116;2022-09-24T15:17:06;5.22;;;3.55;;
18507;SDS011;9383;50.928;12.116;2022-09-24T15:19:47;3.78;;;3.13;;
18507;SDS011;9383;50.928;12.116;2022-09-24T15:22:14;3.30;;;3.00;;
18507;SDS011;9383;50.928;12.116;2022-09-24T15:24:40;3.40;;;3.10;;
18507;SDS011;9383;50.928;12.116;2022-09-24T15:27:40;3.80;;;3.47;;
18507;SDS011;9383;50.928;12.116;2022-09-24T15:30:03;5.00;;;3.65;;
18507;SDS011;9383;50.928;12.116;2022-09-24T15:32:32;4.50;;;3.65;;
18507;SDS011;9383;50.928;12.116;2022-09-24T15:35:00;2.90;;;2.70;;
18507;SDS011;9383;50.928;12.116;2022-09-24T15:37:33;4.68;;;2.70;;
18507;SDS011;9383;50.928;12.116;2022-09-24T15:40:05;2.95;;;2.30;;
18507;SDS011;9383;50.928;12.116;2022-09-24T15:42:47;3.40;;;2.40;;
18507;SDS011;9383;50.928;12.116;2022-09-24T15:45:19;2.92;;;2.63;;
18507;SDS011;9383;50.928;12.116;2022-09-24T15:47:49;2.40;;;2.20;;
18507;SDS011;9383;50.928;12.116;2022-09-24T15:50:17;3.17;;;2.30;;
18507;SDS011;9383;50.928;12.116;2022-09-24T15:52:48;2.78;;;2.58;;
18507;SDS011;9383;50.928;12.116;2022-09-24T15:55:22;2.70;;;2.50;;
18507;SDS011;9383;50.928;12.116;2022-09-24T15:57:48;2.80;;;2.60;;
18507;SDS011;9383;50.928;12.116;2022-09-24T16:00:15;3.10;;;2.60;;
18507;SDS011;9383;50.928;12.116;2022-09-24T16:02:46;2.97;;;2.40;;
18507;SDS011;9383;50.928;12.116;2022-09-24T16:05:17;2.58;;;2.38;;
18507;SDS011;9383;50.928;12.116;2022-09-24T16:07:44;2.50;;;2.30;;
18507;SDS011;9383;50.928;12.116;2022-09-24T16:10:11;3.88;;;2.20;;
18507;SDS011;9383;50.928;12.116;2022-09-24T16:12:40;2.85;;;2.33;;
18507;SDS011;9383;50.928;12.116;2022-09-24T16:15:10;3.65;;;2.47;;
18507;SDS011;9383;50.928;12.116;2022-09-24T16:17:39;2.53;;;2.30;;
18507;SDS011;9383;50.928;12.116;2022-09-24T16:20:06;4.25;;;2.40;;
18507;SDS011;9383;50.928;12.116;2022-09-24T16:22:32;2.40;;;2.20;;
18507;SDS011;9383;50.928;12.116;2022-09-24T16:25:00;2.17;;;2.08;;
18507;SDS011;9383;50.928;12.116;2022-09-24T16:27:26;2.63;;;2.42;;
18507;SDS011;9383;50.928;12.116;2022-09-24T16:29:53;2.70;;;2.50;;
18507;SDS011;9383;50.928;12.116;2022-09-24T16:32:19;2.85;;;2.30;;
18507;SDS011;9383;50.928;12.116;2022-09-24T16:34:46;3.28;;;2.05;;
18507;SDS011;9383;50.928;12.116;2022-09-24T16:37:13;2.55;;;2.35;;
18507;SDS011;9383;50.928;12.116;2022-09-24T16:39:41;2.70;;;2.50;;
18507;SDS011;9383;50.928;12.116;2022-09-24T16:42:07;3.38;;;2.80;;
18507;SDS011;9383;50.928;12.116;2022-09-24T16:44:33;2.72;;;2.50;;
18507;SDS011;9383;50.928;12.116;2022-09-24T16:46:59;3.03;;;2.83;;
18507;SDS011;9383;50.928;12.116;2022-09-24T16:49:26;4.75;;;3.80;;
18507;SDS011;9383;50.928;12.116;2022-09-24T16:51:52;3.22;;;2.92;;
18507;SDS011;9383;50.928;12.116;2022-09-24T16:54:19;3.92;;;3.63;;
18507;SDS011;9383;50.928;12.116;2022-09-24T16:56:47;4.55;;;4.13;;
18507;SDS011;9383;50.928;12.116;2022-09-24T16:59:15;4.28;;;3.97;;
18507;SDS011;9383;50.928;12.116;2022-09-24T17:01:41;4.45;;;4.05;;
18507;SDS011;9383;50.928;12.116;2022-09-24T17:04:08;4.03;;;3.72;;
18507;SDS011;9383;50.928;12.116;2022-09-24T17:06:35;4.68;;;3.97;;